Portada
METAR-TAF:

METAR-TAF

Aeropuertos :

Aeropuerto Internacional Roman Tmetuchl

Koror, Babeldaob, Palaos

latitud: 07-22N, longitud: 134-32E, altitud: 54 m

Observación

El informe se hizo hace 2 horas y 32 minutos, a las 19:50 UTC
Viento 7 kt del noreste
Temperatura 26°C
Humedad 84%
Presión 1010 hPa
Visibilidad: 22.5 km
Nubes dispersas a una altura de 1600 ft
Cielo nuboso a una altura de 29000 ft

METAR: PTRO 021950Z 05007KT 14SM SCT016 BKN290 26/23 A2983

Hora: 07:22 (22:22 UTC)

Pronóstico

El informe se hizo hace 5 horas y 2 minutos, a las 17:20 UTC
Pronóstico válido del 02 a las 18 UTC al 03 a las 18 UTC
Viento 8 kt del noreste
Visibilidad: 10 km
Escasas nubes a una altura de 1800 ft
Nubes dispersas a una altura de 5000 ft

TAF: PTRO 021720Z 0218/0318 05008KT P6SM FEW018 SCT050

Observaciones y pronósticos meteorológicos de más de 4000 aeropuertos (mensajes METAR y TAF).

Los puntos amarillos y rojos representan las estaciones disponibles.

Ponga el ratón en el punto deseado para ver el nombre de la estación.

Haga clic para ver las observaciones y los pronósticos meteorológicos.

Para cambiar el mapa : haga clic en los botones verdes con una cruz de color negro para hacer un zoom, en el botón verde con un guión para alejar o en las flechas verdes para mapas adyacentes.


METAR-TAF: